Time;durP1;ratioP1;P1;durP2;ratioP2;P2;SDS_P1;SDS_P2;PMS_P1;PMS_P2;Temp;Humidity;BMP_temperature;BMP_pressure;BME280_temperature;BME280_humidity;BME280_pressure;Samples;Min_cycle;Max_cycle;Signal;HPM_P1;HPM_P2
2023/09/11 00:02:01;;;;;;;21.65;8.68;;;;;;;20.74;70.76;100505.53;4167962;28;20496;-61
2023/09/11 00:04:04;;;;;;;15.98;7.85;;;;;;;20.73;70.61;100508.22;4169731;28;20120;-61
2023/09/11 00:06:07;;;;;;;24.60;9.57;;;;;;;20.71;70.49;100505.63;4174604;28;20124;-61
2023/09/11 00:08:10;;;;;;;19.63;9.10;;;;;;;20.70;70.18;100500.38;4172392;28;20522;-61
2023/09/11 00:10:13;;;;;;;16.00;8.48;;;;;;;20.67;70.45;100497.84;4169891;28;20124;-61
2023/09/11 00:12:18;;;;;;;16.70;7.88;;;;;;;20.66;70.34;100496.06;4167665;28;20049;-61
2023/09/11 00:14:21;;;;;;;17.77;8.70;;;;;;;20.64;70.48;100497.88;4166943;28;20063;-61
2023/09/11 00:16:24;;;;;;;20.00;8.25;;;;;;;20.58;70.82;100494.47;4158373;28;20132;-61
2023/09/11 00:18:27;;;;;;;25.70;10.60;;;;;;;20.62;71.06;100494.41;4169483;28;20144;-61
2023/09/11 00:20:30;;;;;;;18.80;8.50;;;;;;;20.58;71.10;100485.69;4173758;28;20056;-61
2023/09/11 00:22:33;;;;;;;21.88;8.93;;;;;;;20.59;71.23;100490.09;4170825;28;20375;-61
2023/09/11 00:24:36;;;;;;;15.85;8.88;;;;;;;20.60;71.32;100488.31;4171487;28;20120;-61
2023/09/11 00:26:38;;;;;;;23.30;8.93;;;;;;;20.56;71.67;100491.03;4161799;28;20091;-61
2023/09/11 00:28:42;;;;;;;18.55;8.95;;;;;;;20.54;71.80;100490.19;4171737;28;20084;-61
2023/09/11 00:30:45;;;;;;;;;;;;;;;20.44;72.30;100480.78;4207780;23;20048;-61
2023/09/11 00:32:48;;;;;;;28.80;10.68;;;;;;;20.45;72.24;100487.81;4204552;28;19974;-61
2023/09/11 00:34:51;;;;;;;25.65;9.95;;;;;;;20.50;72.24;100483.28;4193585;28;20094;-61
2023/09/11 00:36:54;;;;;;;18.45;9.13;;;;;;;20.52;72.14;100485.88;4202903;28;20713;-61
2023/09/11 00:38:57;;;;;;;20.38;9.93;;;;;;;20.54;72.14;100484.91;4180746;28;20133;-61
2023/09/11 00:41:00;;;;;;;16.90;8.95;;;;;;;20.55;72.13;100488.44;4201221;28;20028;-61
2023/09/11 00:43:03;;;;;;;21.75;9.23;;;;;;;20.52;72.06;100489.38;4204128;28;20479;-61
2023/09/11 00:45:08;;;;;;;19.15;10.55;;;;;;;20.52;72.08;100481.44;4203977;28;20139;-61
2023/09/11 00:47:11;;;;;;;23.52;11.52;;;;;;;20.48;72.24;100493.00;4209588;28;20408;-61
2023/09/11 00:49:15;;;;;;;18.73;10.82;;;;;;;20.46;72.37;100483.38;4200189;28;20028;-61
2023/09/11 00:51:18;;;;;;;23.50;10.13;;;;;;;20.42;72.46;100477.31;4204742;28;20097;-61
2023/09/11 00:53:21;;;;;;;22.20;11.43;;;;;;;20.40;72.62;100480.00;4188844;28;20527;-61
2023/09/11 00:55:24;;;;;;;24.98;11.73;;;;;;;20.39;72.31;100475.63;4199204;28;20117;-61
2023/09/11 00:57:27;;;;;;;20.50;10.95;;;;;;;20.38;72.61;100480.94;4203295;28;20044;-61
2023/09/11 00:59:30;;;;;;;21.40;10.43;;;;;;;20.37;72.60;100479.19;4205402;28;20032;-61
2023/09/11 01:01:34;;;;;;;22.60;10.68;;;;;;;20.40;72.35;100473.88;4202196;28;20565;-61
2023/09/11 01:03:37;;;;;;;;;;;;;;;20.28;72.75;100469.78;4199137;28;20063;-61
2023/09/11 01:05:43;;;;;;;20.38;11.18;;;;;;;20.32;72.14;100476.69;4177587;28;19920;-62
2023/09/11 01:07:46;;;;;;;15.15;9.52;;;;;;;20.37;71.48;100477.44;4200414;28;20049;-61
2023/09/11 01:09:49;;;;;;;21.73;10.38;;;;;;;20.41;71.05;100470.28;4203724;28;20127;-61
2023/09/11 01:11:52;;;;;;;31.95;10.02;;;;;;;20.42;70.69;100471.19;4187638;28;20048;-61
2023/09/11 01:13:56;;;;;;;26.75;11.00;;;;;;;20.41;70.73;100467.66;4203799;28;20039;-61
2023/09/11 01:16:03;;;;;;;22.92;11.32;;;;;;;20.40;70.45;100471.22;4197882;28;20033;-61
2023/09/11 01:18:14;;;;;;;24.27;10.30;;;;;;;20.39;70.37;100469.47;4205838;28;20070;-61
2023/09/11 01:20:35;;;;;;;23.38;9.80;;;;;;;20.36;70.43;100466.94;4211111;28;20137;-61
2023/09/11 01:22:57;;;;;;;19.05;9.35;;;;;;;20.35;70.27;100470.47;4189065;28;20074;-61
2023/09/11 01:25:14;;;;;;;17.45;9.68;;;;;;;20.34;70.02;100463.44;4204280;28;20033;-64
2023/09/11 01:27:43;;;;;;;22.92;9.65;;;;;;;20.32;70.44;100468.75;4210997;28;20105;-64
2023/09/11 01:29:49;;;;;;;24.05;9.48;;;;;;;20.29;70.46;100466.22;4195128;28;20044;-64
2023/09/11 01:31:55;;;;;;;19.52;8.27;;;;;;;20.31;70.53;100464.41;4189205;28;20032;-63
2023/09/11 01:34:00;;;;;;;16.88;8.13;;;;;;;20.32;70.59;100470.56;4200862;28;20131;-62
2023/09/11 01:36:04;;;;;;;19.75;9.77;;;;;;;20.29;70.91;100468.84;4199801;28;20123;-61
2023/09/11 01:38:07;;;;;;;13.30;8.35;;;;;;;20.30;70.97;100467.09;4189313;28;20075;-61
2023/09/11 01:40:10;;;;;;;16.65;7.53;;;;;;;20.27;71.02;100480.34;4211783;28;20036;-61
2023/09/11 01:42:18;;;;;;;17.27;9.90;;;;;;;20.22;70.93;100475.19;4193321;28;20044;-61
2023/09/11 01:44:25;;;;;;;19.23;8.98;;;;;;;20.14;70.64;100475.41;4196931;28;20127;-62
2023/09/11 01:46:30;;;;;;;23.15;9.52;;;;;;;20.10;70.46;100471.09;4193705;28;20036;-62
2023/09/11 01:48:34;;;;;;;22.48;9.20;;;;;;;20.04;70.08;100469.47;4173743;28;20036;-62
2023/09/11 01:50:39;;;;;;;17.60;8.18;;;;;;;20.02;70.07;100468.66;4202615;28;20040;-61
2023/09/11 01:52:43;;;;;;;18.55;8.52;;;;;;;20.02;70.06;100467.78;4195932;28;20032;-64
2023/09/11 01:54:46;;;;;;;16.48;8.23;;;;;;;20.01;70.08;100464.28;4190392;28;20519;-64
2023/09/11 01:56:49;;;;;;;15.07;8.00;;;;;;;20.02;70.09;100467.78;4199212;28;20571;-64
2023/09/11 01:58:52;;;;;;;14.07;8.32;;;;;;;19.98;69.74;100463.50;4198733;28;20111;-64
2023/09/11 02:00:55;;;;;;;18.40;8.75;;;;;;;19.93;69.49;100468.88;4202785;28;20131;-64
2023/09/11 02:03:01;;;;;;;17.40;8.13;;;;;;;19.86;70.05;100468.16;4195810;28;20128;-64
2023/09/11 02:05:06;;;;;;;18.58;8.63;;;;;;;19.81;69.87;100470.03;4193047;28;20052;-64
2023/09/11 02:07:09;;;;;;;18.08;8.20;;;;;;;19.77;69.84;100467.47;4210769;28;20047;-64
2023/09/11 02:09:11;;;;;;;16.85;8.23;;;;;;;19.77;70.32;100459.56;4176807;28;20436;-64
2023/09/11 02:11:14;;;;;;;19.60;8.63;;;;;;;19.76;70.08;100468.41;4202037;28;20534;-64
2023/09/11 02:13:15;;;;;;;19.73;7.72;;;;;;;19.76;70.13;100476.31;4196760;28;20491;-64
2023/09/11 02:15:18;;;;;;;17.90;8.20;;;;;;;19.68;70.36;100473.81;4192330;28;20076;-64
2023/09/11 02:17:21;;;;;;;17.40;8.32;;;;;;;19.69;70.05;100476.44;4204122;28;20048;-64
2023/09/11 02:19:25;;;;;;;21.88;9.15;;;;;;;19.67;69.77;100475.59;4200593;28;20040;-64
2023/09/11 02:21:28;;;;;;;16.90;9.77;;;;;;;19.61;69.91;100478.41;4196016;28;20078;-64
2023/09/11 02:23:31;;;;;;;15.80;7.95;;;;;;;19.59;70.33;100474.91;4196568;28;20040;-64
2023/09/11 02:25:34;;;;;;;16.58;8.82;;;;;;;19.63;70.19;100470.44;4197753;28;20534;-64
2023/09/11 02:27:38;;;;;;;17.25;7.80;;;;;;;19.63;70.14;100481.00;4188172;28;20441;-64
2023/09/11 02:29:40;;;;;;;20.00;8.07;;;;;;;19.62;70.05;100474.84;4201555;28;20040;-64
2023/09/11 02:31:43;;;;;;;18.52;7.95;;;;;;;19.62;70.20;100471.34;4214633;28;20028;-64
2023/09/11 02:33:46;;;;;;;18.55;7.97;;;;;;;19.61;70.34;100472.22;4201205;28;20043;-64
2023/09/11 02:35:54;;;;;;;13.50;6.93;;;;;;;19.62;70.16;100468.69;4197719;28;20036;-64
2023/09/11 02:37:57;;;;;;;19.15;9.43;;;;;;;19.59;70.66;100474.06;4172992;28;20049;-61
2023/09/11 02:40:00;;;;;;;19.30;8.43;;;;;;;19.60;70.35;100465.25;4200547;28;20045;-62
2023/09/11 02:42:03;;;;;;;15.85;7.40;;;;;;;19.59;70.68;100472.28;4198921;28;20043;-64
2023/09/11 02:44:06;;;;;;;18.63;9.02;;;;;;;19.59;70.22;100471.41;4193216;28;20056;-64
2023/09/11 02:46:09;;;;;;;14.20;7.85;;;;;;;19.56;70.33;100474.97;4199081;28;20028;-64
2023/09/11 02:48:13;;;;;;;18.25;8.73;;;;;;;19.53;70.69;100473.28;4201087;28;20045;-64
2023/09/11 02:50:15;;;;;;;16.05;7.32;;;;;;;19.51;70.85;100472.47;4195580;28;20064;-64
2023/09/11 02:52:19;;;;;;;14.50;7.95;;;;;;;19.51;70.64;100476.88;4196796;28;20076;-64
2023/09/11 02:54:22;;;;;;;14.60;8.35;;;;;;;19.45;71.01;100471.72;4181613;28;20090;-64
2023/09/11 02:56:25;;;;;;;18.27;8.57;;;;;;;19.45;70.78;100467.31;4201101;28;20123;-64
2023/09/11 02:58:28;;;;;;;20.45;8.38;;;;;;;19.41;71.00;100470.94;4204002;28;20502;-64
2023/09/11 03:00:31;;;;;;;12.18;6.82;;;;;;;19.41;71.45;100465.66;4184495;28;20557;-64
2023/09/11 03:02:34;;;;;;;16.67;8.35;;;;;;;19.42;71.47;100461.25;4205091;28;20047;-64
2023/09/11 03:04:37;;;;;;;18.60;9.60;;;;;;;19.42;71.82;100466.50;4201979;28;20499;-64
2023/09/11 03:06:40;;;;;;;14.88;7.00;;;;;;;19.36;71.71;100465.75;4198412;28;20086;-64
2023/09/11 03:08:44;;;;;;;16.90;8.60;;;;;;;19.34;71.81;100464.91;4204497;28;20123;-64
2023/09/11 03:10:47;;;;;;;19.73;8.35;;;;;;;19.37;71.82;100463.97;4187274;28;20037;-64
2023/09/11 03:12:50;;;;;;;20.38;8.77;;;;;;;19.39;71.75;100461.31;4203244;28;20517;-63
2023/09/11 03:14:53;;;;;;;18.98;8.63;;;;;;;19.38;72.11;100464.84;4188576;28;20135;-64
2023/09/11 03:16:56;;;;;;;17.50;8.32;;;;;;;19.37;72.06;100458.72;4188118;28;20129;-64
2023/09/11 03:18:59;;;;;;;20.77;9.70;;;;;;;19.40;71.67;100461.28;4221895;28;20067;-64
2023/09/11 03:21:03;;;;;;;13.23;7.88;;;;;;;19.35;72.36;100466.66;4205725;28;20119;-64
2023/09/11 03:23:06;;;;;;;18.42;8.25;;;;;;;19.35;71.70;100460.53;4201657;28;20098;-64
2023/09/11 03:25:11;;;;;;;14.80;8.50;;;;;;;19.37;71.70;100461.34;4202337;28;20445;-64
2023/09/11 03:27:14;;;;;;;14.02;8.25;;;;;;;19.34;71.74;100461.41;4205311;28;20048;-64
2023/09/11 03:29:18;;;;;;;17.40;8.25;;;;;;;19.30;71.90;100446.56;4198006;28;20056;-64
2023/09/11 03:31:21;;;;;;;19.95;8.65;;;;;;;19.29;71.94;100455.38;4205860;28;20040;-64
2023/09/11 03:33:24;;;;;;;13.38;8.05;;;;;;;19.27;71.82;100450.13;4204309;28;20043;-64
2023/09/11 03:35:27;;;;;;;13.50;8.17;;;;;;;19.22;72.09;100453.78;4204645;28;20052;-64
2023/09/11 03:37:30;;;;;;;20.70;8.65;;;;;;;19.18;72.13;100464.38;4189637;28;20531;-64
2023/09/11 03:39:33;;;;;;;14.98;9.27;;;;;;;19.17;72.15;100448.59;4202909;28;20066;-64
2023/09/11 03:41:37;;;;;;;19.17;9.50;;;;;;;19.17;71.80;100457.38;4222005;28;20055;-63
2023/09/11 03:43:40;;;;;;;15.77;8.73;;;;;;;19.14;72.04;100448.66;4203620;28;20036;-63
2023/09/11 03:45:44;;;;;;;20.23;9.48;;;;;;;19.12;72.56;100451.34;4200872;28;20039;-64
2023/09/11 03:47:46;;;;;;;15.45;8.38;;;;;;;19.12;72.69;100446.06;4199186;28;20035;-64
2023/09/11 03:49:50;;;;;;;21.05;8.55;;;;;;;19.13;72.49;100450.44;4202772;28;20037;-64
2023/09/11 03:51:53;;;;;;;18.45;8.20;;;;;;;19.18;72.54;100456.47;4194788;28;20047;-64
2023/09/11 03:53:58;;;;;;;19.05;9.05;;;;;;;19.21;72.48;100449.41;4181985;28;20079;-64
2023/09/11 03:56:02;;;;;;;16.55;8.68;;;;;;;19.17;72.36;100446.84;4193036;28;20047;-63
2023/09/11 03:58:07;;;;;;;22.58;8.75;;;;;;;19.19;72.61;100457.34;4198368;28;20033;-64
2023/09/11 04:00:11;;;;;;;21.25;9.57;;;;;;;19.14;72.95;100449.56;4195050;28;20260;-64
2023/09/11 04:02:16;;;;;;;17.90;9.80;;;;;;;19.11;73.05;100443.47;4216703;28;20126;-64
2023/09/11 04:04:19;;;;;;;20.05;9.60;;;;;;;19.09;73.53;100446.13;4187671;28;20136;-63
2023/09/11 04:06:22;;;;;;;16.00;8.90;;;;;;;19.08;73.49;100447.03;4202429;28;20040;-63
2023/09/11 04:08:25;;;;;;;12.05;6.65;;;;;;;19.11;74.87;100441.69;4202750;28;20131;-62
2023/09/11 04:10:29;;;;;;;15.00;7.30;;;;;;;19.43;75.99;100447.16;4186180;28;20053;-61
2023/09/11 04:12:32;;;;;;;13.90;7.32;;;;;;;19.80;75.55;100441.94;4215554;28;20040;-62
2023/09/11 04:14:38;;;;;;;15.10;7.45;;;;;;;20.09;74.60;100434.19;4195898;28;20040;-61
2023/09/11 04:16:41;;;;;;;13.32;7.55;;;;;;;20.30;73.42;100440.69;4200012;28;20048;-61
2023/09/11 04:18:44;;;;;;;17.23;7.65;;;;;;;20.46;72.34;100441.13;4217210;28;20033;-61
2023/09/11 04:20:47;;;;;;;20.70;8.80;;;;;;;20.52;71.82;100441.84;4216271;28;20397;-61
2023/09/11 04:22:50;;;;;;;15.88;7.72;;;;;;;20.56;71.15;100437.34;4199097;28;20039;-61
2023/09/11 04:24:53;;;;;;;31.45;9.13;;;;;;;20.51;69.85;100448.00;4196980;28;20110;-63
2023/09/11 04:26:56;;;;;;;21.77;9.93;;;;;;;20.28;69.37;100434.56;4196648;28;20071;-63
2023/09/11 04:28:59;;;;;;;17.67;9.45;;;;;;;20.01;69.46;100439.66;4182834;28;20095;-63
2023/09/11 04:31:03;;;;;;;18.27;9.00;;;;;;;19.75;70.38;100445.56;4194625;28;20033;-63
2023/09/11 04:33:05;;;;;;;14.80;8.25;;;;;;;19.47;70.93;100448.84;4191369;28;20032;-63
2023/09/11 04:35:09;;;;;;;14.98;9.10;;;;;;;19.34;71.49;100443.81;4178971;28;20423;-63
2023/09/11 04:37:13;;;;;;;15.82;8.95;;;;;;;19.27;71.69;100451.91;4199462;28;20123;-63
2023/09/11 04:39:16;;;;;;;15.32;7.47;;;;;;;19.20;72.40;100448.53;4205890;28;20039;-63
2023/09/11 04:41:19;;;;;;;15.00;7.65;;;;;;;19.16;72.45;100449.50;4188399;28;20136;-63
2023/09/11 04:43:23;;;;;;;15.88;7.90;;;;;;;19.13;72.75;100452.22;4215399;28;20126;-63
2023/09/11 04:45:25;;;;;;;22.63;10.10;;;;;;;19.08;72.85;100456.72;4201720;28;20415;-63
2023/09/11 04:47:31;;;;;;;20.92;10.18;;;;;;;19.01;73.39;100451.56;4205365;28;20093;-63
2023/09/11 04:49:35;;;;;;;18.27;8.90;;;;;;;18.99;73.12;100452.50;4200755;28;20063;-61
2023/09/11 04:51:38;;;;;;;13.25;8.27;;;;;;;18.95;73.29;100448.19;4197580;28;20086;-60
2023/09/11 04:53:41;;;;;;;14.98;8.32;;;;;;;18.94;73.10;100451.72;4207131;28;20032;-60
2023/09/11 04:55:44;;;;;;;14.52;8.38;;;;;;;18.90;73.72;100452.69;4201649;28;20091;-61
2023/09/11 04:57:47;;;;;;;18.33;9.68;;;;;;;18.85;73.34;100455.38;4182343;28;20040;-63
2023/09/11 04:59:50;;;;;;;21.00;9.48;;;;;;;18.90;73.96;100465.88;4203339;28;20042;-63
2023/09/11 05:01:53;;;;;;;21.30;9.30;;;;;;;19.02;74.62;100458.56;4197717;28;20479;-63
2023/09/11 05:03:57;;;;;;;22.13;10.15;;;;;;;19.00;74.14;100459.50;4203241;28;20041;-63
2023/09/11 05:06:01;;;;;;;15.00;7.18;;;;;;;18.98;73.93;100467.44;4203339;28;21612;-63
2023/09/11 05:08:04;;;;;;;18.88;8.98;;;;;;;19.02;73.87;100468.25;4186306;28;20044;-63
2023/09/11 05:10:08;;;;;;;14.73;7.72;;;;;;;19.07;73.38;100462.88;4201668;28;20059;-63
2023/09/11 05:12:12;;;;;;;19.20;8.02;;;;;;;18.98;73.55;100462.19;4216580;28;20027;-63
2023/09/11 05:14:15;;;;;;;23.48;10.05;;;;;;;19.00;73.61;100464.78;4186942;28;20040;-63
2023/09/11 05:16:18;;;;;;;23.15;9.68;;;;;;;18.97;73.56;100464.84;4201591;28;20049;-63
2023/09/11 05:18:21;;;;;;;16.27;8.35;;;;;;;18.88;73.68;100470.28;4204488;28;20036;-62
2023/09/11 05:20:25;;;;;;;26.85;10.25;;;;;;;18.86;73.86;100467.69;4204038;28;20036;-63
2023/09/11 05:22:28;;;;;;;30.42;10.02;;;;;;;18.94;73.45;100467.50;4200488;28;20062;-62
2023/09/11 05:24:31;;;;;;;17.02;8.38;;;;;;;18.95;73.61;100474.53;4200871;28;20040;-63
2023/09/11 05:26:35;;;;;;;26.90;9.82;;;;;;;18.84;73.85;100472.09;4205246;28;20041;-62
2023/09/11 05:28:37;;;;;;;19.25;9.90;;;;;;;18.78;74.26;100469.59;4201305;28;20028;-63
2023/09/11 05:30:41;;;;;;;18.05;8.80;;;;;;;18.87;74.39;100474.69;4199626;28;20036;-62
2023/09/11 05:32:47;;;;;;;20.55;9.23;;;;;;;18.86;74.36;100477.31;4199934;28;20586;-63
2023/09/11 05:34:51;;;;;;;27.80;9.50;;;;;;;18.91;74.17;100475.47;4203508;28;20403;-63
2023/09/11 05:36:55;;;;;;;21.23;9.50;;;;;;;19.00;73.85;100470.91;4202532;28;20100;-63
2023/09/11 05:38:58;;;;;;;24.75;9.43;;;;;;;19.02;73.52;100465.59;4204055;28;20037;-62
2023/09/11 05:41:01;;;;;;;19.20;9.68;;;;;;;19.09;73.25;100469.84;4202312;28;20539;-63
2023/09/11 05:43:04;;;;;;;24.08;8.98;;;;;;;19.16;72.88;100466.19;4201039;28;20087;-62
2023/09/11 05:45:06;;;;;;;19.65;8.52;;;;;;;19.15;73.25;100474.13;4203361;28;20545;-62
2023/09/11 05:47:09;;;;;;;19.27;8.75;;;;;;;19.09;73.58;100480.38;4203031;28;21689;-62
2023/09/11 05:49:12;;;;;;;24.60;10.45;;;;;;;19.14;73.47;100473.28;4200111;28;20040;-63
2023/09/11 05:51:15;;;;;;;23.25;10.30;;;;;;;19.19;73.11;100476.66;4205280;28;20122;-62
2023/09/11 05:53:19;;;;;;;26.35;11.00;;;;;;;19.19;73.30;100487.19;4202156;28;20495;-62
2023/09/11 05:55:22;;;;;;;26.90;9.65;;;;;;;19.24;72.99;100484.47;4201549;28;20040;-63
2023/09/11 05:57:25;;;;;;;25.08;10.43;;;;;;;19.23;73.14;100482.75;4203762;28;20036;-63
2023/09/11 05:59:28;;;;;;;22.83;9.57;;;;;;;19.27;73.04;100488.81;4204143;28;20054;-63
2023/09/11 06:01:31;;;;;;;28.27;11.10;;;;;;;19.26;72.84;100487.94;4197809;28;20411;-62
2023/09/11 06:03:34;;;;;;;23.80;10.77;;;;;;;19.26;72.96;100492.34;4204197;28;20043;-62
2023/09/11 06:05:39;;;;;;;27.25;10.15;;;;;;;19.28;72.84;100482.66;4205595;28;20453;-63
2023/09/11 06:07:42;;;;;;;29.67;12.25;;;;;;;19.26;72.42;100482.69;4200095;28;20511;-63
2023/09/11 06:09:47;;;;;;;22.65;10.40;;;;;;;19.29;72.42;100487.00;4198358;28;20474;-63
2023/09/11 06:11:52;;;;;;;28.30;11.57;;;;;;;19.30;72.49;100484.34;4203606;28;20532;-62
2023/09/11 06:13:55;;;;;;;20.80;9.32;;;;;;;19.29;72.68;100489.63;4201714;28;20085;-63
2023/09/11 06:15:58;;;;;;;18.55;9.77;;;;;;;19.30;72.86;100488.75;4203894;28;20119;-62
2023/09/11 06:18:01;;;;;;;27.58;11.60;;;;;;;19.28;73.17;100491.41;4204977;28;21298;-62
2023/09/11 06:20:08;;;;;;;23.58;10.82;;;;;;;19.29;73.54;100493.16;4197532;28;20041;-63
2023/09/11 06:22:11;;;;;;;25.95;9.77;;;;;;;19.31;73.57;100491.34;4199431;28;20037;-63
2023/09/11 06:24:14;;;;;;;23.67;11.20;;;;;;;19.34;73.61;100495.69;4203336;28;20036;-62
2023/09/11 06:26:19;;;;;;;29.92;11.60;;;;;;;19.39;73.15;100499.09;4200442;28;20113;-62
2023/09/11 06:28:22;;;;;;;25.83;9.77;;;;;;;19.38;72.56;100493.84;4199183;28;20545;-63
2023/09/11 06:30:24;;;;;;;30.00;11.77;;;;;;;19.40;72.85;100506.09;4198948;28;20167;-63
2023/09/11 06:32:27;;;;;;;27.15;10.90;;;;;;;19.42;72.73;100495.50;4202710;28;20040;-63
2023/09/11 06:34:31;;;;;;;20.98;10.32;;;;;;;19.41;72.49;100499.94;4200477;28;20028;-63
2023/09/11 06:36:33;;;;;;;22.13;10.68;;;;;;;19.43;72.52;100498.13;4201390;28;20028;-63
2023/09/11 06:38:35;;;;;;;21.40;11.00;;;;;;;19.44;72.36;100501.63;4201695;28;20071;-60
2023/09/11 06:40:38;;;;;;;15.05;9.77;;;;;;;19.45;72.09;100506.00;4202009;28;20035;-61
2023/09/11 06:42:42;;;;;;;17.13;10.15;;;;;;;19.48;72.33;100501.53;4199125;28;20572;-61
2023/09/11 06:44:44;;;;;;;20.35;9.85;;;;;;;19.49;71.84;100513.81;4203031;28;20066;-61
2023/09/11 06:46:47;;;;;;;13.90;8.98;;;;;;;19.52;71.89;100499.69;4200735;28;20044;-61
2023/09/11 06:48:50;;;;;;;16.75;10.55;;;;;;;19.54;71.79;100501.38;4200037;28;20048;-61
2023/09/11 06:50:54;;;;;;;13.38;8.73;;;;;;;19.61;71.73;100498.59;4207554;28;20048;-60
2023/09/11 06:52:57;;;;;;;14.83;9.43;;;;;;;19.65;71.94;100500.28;4203966;28;20430;-61
2023/09/11 06:55:02;;;;;;;19.42;9.27;;;;;;;19.69;71.97;100505.44;4194560;28;20040;-60
2023/09/11 06:57:05;;;;;;;;;;;;;;;19.64;71.81;100503.81;4199712;28;20144;-61
2023/09/11 06:59:12;;;;;;;18.63;9.00;;;;;;;19.71;71.76;100501.03;4207449;28;19924;-61
2023/09/11 07:01:15;;;;;;;17.23;9.10;;;;;;;19.77;71.74;100507.94;4202312;28;20087;-61
2023/09/11 07:03:19;;;;;;;14.77;9.05;;;;;;;19.83;71.44;100504.28;4204670;28;20040;-61
2023/09/11 07:05:25;;;;;;;14.60;9.82;;;;;;;19.88;71.29;100508.56;4206889;28;20032;-61
2023/09/11 07:07:28;;;;;;;15.95;9.60;;;;;;;19.96;70.99;100504.88;4202932;28;20111;-61
2023/09/11 07:09:31;;;;;;;23.70;10.32;;;;;;;20.01;70.89;100503.00;4209010;28;20041;-61
2023/09/11 07:11:34;;;;;;;17.75;9.43;;;;;;;20.05;70.77;100494.97;4205800;28;20089;-61
2023/09/11 07:13:37;;;;;;;23.08;9.50;;;;;;;20.09;70.59;100503.66;4199884;28;20561;-61
2023/09/11 07:15:42;;;;;;;22.88;11.27;;;;;;;20.16;69.99;100494.69;4200008;28;20043;-61
2023/09/11 07:17:47;;;;;;;16.48;10.18;;;;;;;20.19;69.88;100497.28;4205326;28;20046;-61
2023/09/11 07:19:50;;;;;;;15.05;9.98;;;;;;;20.27;69.94;100496.19;4205331;28;20044;-61
2023/09/11 07:21:53;;;;;;;18.70;10.43;;;;;;;20.32;70.17;100494.31;4206785;28;20436;-61
2023/09/11 07:23:56;;;;;;;16.02;10.05;;;;;;;20.38;70.41;100481.81;4205138;28;20079;-61
2023/09/11 07:25:59;;;;;;;16.30;9.52;;;;;;;20.42;70.31;100482.59;4204706;28;20075;-61
2023/09/11 07:28:02;;;;;;;18.42;9.65;;;;;;;20.46;70.05;100484.25;4206784;28;20093;-61
2023/09/11 07:30:08;;;;;;;12.55;8.88;;;;;;;20.52;70.05;100483.25;4202090;28;20123;-61
2023/09/11 07:32:14;;;;;;;16.15;10.70;;;;;;;20.60;69.72;100485.66;4201738;28;20036;-61
2023/09/11 07:34:17;;;;;;;19.58;9.75;;;;;;;20.64;69.37;100490.81;4194151;28;20047;-61
2023/09/11 07:36:20;;;;;;;22.60;12.45;;;;;;;20.72;69.03;100491.50;4200948;28;20403;-61
2023/09/11 07:38:23;;;;;;;18.23;10.90;;;;;;;20.77;69.03;100494.03;4199565;28;20036;-61
2023/09/11 07:40:26;;;;;;;20.73;11.30;;;;;;;20.85;68.67;100492.06;4198467;28;20040;-61
2023/09/11 07:42:29;;;;;;;17.40;11.38;;;;;;;20.91;68.53;100491.88;4204836;28;20036;-61
2023/09/11 07:44:32;;;;;;;22.20;10.65;;;;;;;20.97;68.49;100492.59;4207079;28;20472;-61
2023/09/11 07:46:35;;;;;;;17.52;11.65;;;;;;;21.01;68.39;100491.59;4205060;28;20040;-61
2023/09/11 07:48:39;;;;;;;25.92;13.15;;;;;;;21.06;68.25;100493.19;4194957;28;20522;-61
2023/09/11 07:50:43;;;;;;;21.88;11.88;;;;;;;21.11;68.16;100493.06;4202420;28;20448;-61
2023/09/11 07:52:45;;;;;;;22.23;12.18;;;;;;;21.17;68.07;100497.31;4205098;28;20314;-61
2023/09/11 07:54:48;;;;;;;32.45;16.45;;;;;;;21.17;67.47;100494.66;4206284;28;20039;-61
2023/09/11 07:56:52;;;;;;;33.53;16.70;;;;;;;21.24;67.39;100496.22;4205547;28;20056;-61
2023/09/11 07:58:55;;;;;;;28.00;15.80;;;;;;;21.33;67.17;100500.38;4194181;28;20097;-61
2023/09/11 08:00:58;;;;;;;25.85;13.80;;;;;;;21.39;67.09;100502.81;4204028;28;20135;-61
2023/09/11 08:03:01;;;;;;;22.45;13.82;;;;;;;21.45;66.83;100502.66;4205540;28;20132;-61
2023/09/11 08:05:06;;;;;;;22.00;12.50;;;;;;;21.50;66.79;100499.88;4202149;28;20040;-61
2023/09/11 08:07:08;;;;;;;22.42;12.32;;;;;;;21.53;66.78;100503.31;4201005;28;20119;-61
2023/09/11 08:09:12;;;;;;;23.05;12.80;;;;;;;21.59;66.84;100505.75;4204322;28;20037;-61
2023/09/11 08:11:16;;;;;;;19.27;10.55;;;;;;;21.66;66.74;100500.31;4201144;28;20060;-61
2023/09/11 08:13:19;;;;;;;;;;;;;;;21.66;66.65;100497.66;4206687;28;20043;-61
2023/09/11 08:15:23;;;;;;;27.95;13.52;;;;;;;21.73;66.38;100501.84;4200053;28;20369;-61
2023/09/11 08:17:27;;;;;;;;;;;;;;;21.75;66.24;100500.00;4204928;28;20055;-61
2023/09/11 08:19:30;;;;;;;20.83;11.52;;;;;;;21.83;66.13;100508.56;4206036;28;19926;-61
2023/09/11 08:21:35;;;;;;;21.67;10.25;;;;;;;21.92;66.29;100499.47;4202939;28;20060;-61
2023/09/11 08:23:38;;;;;;;24.50;12.02;;;;;;;21.93;66.46;100506.47;4202892;28;20028;-61
2023/09/11 08:25:41;;;;;;;17.67;9.88;;;;;;;22.02;66.36;100502.66;4196500;28;20132;-61
2023/09/11 08:27:44;;;;;;;21.83;11.48;;;;;;;22.09;66.53;100501.56;4199354;28;20466;-61
2023/09/11 08:29:47;;;;;;;18.17;10.65;;;;;;;22.16;66.50;100505.72;4204822;28;20479;-61
2023/09/11 08:31:49;;;;;;;21.23;11.02;;;;;;;22.21;66.33;100509.09;4199282;28;20047;-61
2023/09/11 08:33:54;;;;;;;22.45;12.80;;;;;;;22.31;66.02;100504.34;4203004;28;20040;-61
2023/09/11 08:35:58;;;;;;;27.67;12.50;;;;;;;22.36;65.72;100498.94;4204520;28;20032;-61
2023/09/11 08:38:03;;;;;;;21.35;11.32;;;;;;;22.39;65.60;100491.75;4202723;28;20116;-61
2023/09/11 08:40:07;;;;;;;25.30;13.35;;;;;;;22.47;65.27;100483.53;4199423;28;20040;-61
2023/09/11 08:42:11;;;;;;;21.70;11.25;;;;;;;22.54;65.46;100484.19;4205059;28;20388;-61
2023/09/11 08:44:14;;;;;;;23.00;12.75;;;;;;;22.62;65.48;100483.00;4200613;28;20480;-61
2023/09/11 08:46:17;;;;;;;23.65;12.07;;;;;;;22.69;65.22;100490.72;4205383;28;20505;-61
2023/09/11 08:48:24;;;;;;;23.83;12.38;;;;;;;22.74;64.91;100491.44;4201440;28;20036;-61
2023/09/11 08:50:32;;;;;;;25.38;12.82;;;;;;;22.84;64.80;100487.53;4184589;28;20094;-61
2023/09/11 08:52:39;;;;;;;28.50;10.57;;;;;;;22.90;64.64;100486.44;4207134;28;20496;-61
2023/09/11 08:54:46;;;;;;;19.42;9.73;;;;;;;22.96;64.92;100492.38;4199749;28;20048;-61
2023/09/11 08:56:49;;;;;;;27.33;14.57;;;;;;;23.11;63.47;100495.41;4200933;28;20426;-61
2023/09/11 08:58:54;;;;;;;22.23;12.77;;;;;;;23.11;62.97;100492.75;4204107;28;20048;-61
2023/09/11 09:00:57;;;;;;;20.58;12.43;;;;;;;23.10;62.90;100488.34;4201887;28;20044;-61
2023/09/11 09:03:01;;;;;;;20.90;11.18;;;;;;;23.16;63.25;100491.66;4205253;28;20032;-61
2023/09/11 09:05:06;;;;;;;;;;;;;;;23.21;62.97;100496.78;4202833;28;20040;-61
2023/09/11 09:07:10;;;;;;;18.65;10.95;;;;;;;23.30;62.78;100490.28;4202637;28;19921;-61
2023/09/11 09:09:12;;;;;;;21.83;10.00;;;;;;;23.39;62.88;100483.75;4197270;28;20047;-60
2023/09/11 09:11:17;;;;;;;24.13;13.40;;;;;;;23.56;61.51;100480.44;4206248;28;20070;-61
2023/09/11 09:13:20;;;;;;;21.73;12.30;;;;;;;23.59;61.19;100483.84;4201224;28;20036;-61
2023/09/11 09:15:24;;;;;;;16.50;11.15;;;;;;;23.60;61.24;100488.22;4201498;28;20099;-61
2023/09/11 09:17:27;;;;;;;20.33;10.90;;;;;;;23.70;61.52;100489.59;4206150;28;20078;-61
2023/09/11 09:19:31;;;;;;;29.40;12.70;;;;;;;23.77;61.33;100484.91;4201084;28;20406;-61
2023/09/11 09:21:34;;;;;;;24.58;10.75;;;;;;;23.85;61.14;100482.78;4201673;28;20039;-61
2023/09/11 09:23:37;;;;;;;17.08;10.63;;;;;;;23.84;61.40;100475.72;4200095;28;20055;-61
2023/09/11 09:25:40;;;;;;;23.60;12.47;;;;;;;24.02;60.03;100479.47;4205043;28;20095;-61
2023/09/11 09:27:44;;;;;;;23.20;11.70;;;;;;;24.14;59.73;100482.56;4200067;28;20436;-61
2023/09/11 09:29:48;;;;;;;20.50;10.80;;;;;;;24.18;59.72;100476.16;4202409;28;20102;-61